NAPEX1 KPWM-B19
Flight info
| Callsign | NAPEX1 |
|---|---|
| Flight time | N/A |
| Altitude | VFR/045 |
| Route | |
| Aircraft | C152/L-VGD/C |
Departure
| Time | 2026-05-04 21:05 |
|---|---|
| Airport | Portland International Jetport (KPWM) |
Arrival
| Time | N/A |
|---|---|
| Airport | B19 |
| Time | Latitude | Longitude | Altitude | Speed | Heading |
|---|---|---|---|---|---|
| 2026-05-04 20:58 | 43.64846 | -70.30356 | 54 ft | 0 kts | 259° |
| 2026-05-04 20:59 | 43.64833 | -70.30362 | 54 ft | 5 kts | 175° |
| 2026-05-04 21:00 | 43.64828 | -70.30360 | 54 ft | 2 kts | 168° |
| 2026-05-04 21:00 | 43.64813 | -70.30374 | 54 ft | 0 kts | 264° |
| 2026-05-04 21:00 | 43.64811 | -70.30393 | 54 ft | 7 kts | 260° |
| 2026-05-04 21:00 | 43.64841 | -70.30481 | 54 ft | 15 kts | 342° |
| 2026-05-04 21:01 | 43.64983 | -70.30543 | 51 ft | 25 kts | 339° |
| 2026-05-04 21:01 | 43.65098 | -70.30587 | 47 ft | 19 kts | 342° |
| 2026-05-04 21:01 | 43.65172 | -70.30686 | 46 ft | 17 kts | 249° |
| 2026-05-04 21:01 | 43.65107 | -70.30720 | 48 ft | 12 kts | 179° |
| 2026-05-04 21:02 | 43.64994 | -70.30714 | 50 ft | 21 kts | 179° |
| 2026-05-04 21:02 | 43.64828 | -70.30709 | 52 ft | 24 kts | 178° |
| 2026-05-04 21:02 | 43.64674 | -70.30699 | 55 ft | 19 kts | 178° |
| 2026-05-04 21:02 | 43.64573 | -70.30662 | 53 ft | 12 kts | 123° |
| 2026-05-04 21:03 | 43.64558 | -70.30531 | 54 ft | 17 kts | 94° |
| 2026-05-04 21:03 | 43.64546 | -70.30333 | 51 ft | 24 kts | 95° |
| 2026-05-04 21:03 | 43.64529 | -70.30098 | 50 ft | 22 kts | 95° |
| 2026-05-04 21:03 | 43.64524 | -70.30016 | 48 ft | 8 kts | 94° |
| 2026-05-04 21:04 | 43.64504 | -70.29933 | 44 ft | 11 kts | 142° |
| 2026-05-04 21:04 | 43.64427 | -70.29937 | 42 ft | 11 kts | 235° |
| 2026-05-04 21:04 | 43.64416 | -70.30045 | 44 ft | 24 kts | 273° |
| 2026-05-04 21:04 | 43.64434 | -70.30445 | 124 ft | 49 kts | 272° |
| 2026-05-04 21:05 | 43.64438 | -70.30921 | 315 ft | 50 kts | 275° |
| 2026-05-04 21:05 | 43.64432 | -70.31418 | 547 ft | 53 kts | 272° |
| 2026-05-04 21:05 | 43.64444 | -70.31946 | 740 ft | 58 kts | 269° |
| 2026-05-04 21:05 | 43.64274 | -70.32415 | 934 ft | 60 kts | 227° |
| 2026-05-04 21:06 | 43.63934 | -70.32727 | 1125 ft | 60 kts | 228° |
| 2026-05-04 21:06 | 43.63578 | -70.33016 | 1298 ft | 62 kts | 220° |
| 2026-05-04 21:06 | 43.63183 | -70.33325 | 1453 ft | 71 kts | 218° |
| 2026-05-04 21:06 | 43.62735 | -70.33670 | 1563 ft | 75 kts | 223° |
| 2026-05-04 21:07 | 43.62305 | -70.34056 | 1704 ft | 74 kts | 226° |
| 2026-05-04 21:07 | 43.61877 | -70.34432 | 1779 ft | 74 kts | 229° |
| 2026-05-04 21:07 | 43.61473 | -70.34906 | 1797 ft | 73 kts | 229° |
| 2026-05-04 21:07 | 43.61086 | -70.35271 | 1947 ft | 65 kts | 225° |
| 2026-05-04 21:08 | 43.60691 | -70.35580 | 2051 ft | 68 kts | 225° |
| 2026-05-04 21:08 | 43.60269 | -70.35934 | 2081 ft | 74 kts | 226° |
| 2026-05-04 21:08 | 43.59839 | -70.36322 | 2200 ft | 72 kts | 226° |
| 2026-05-04 21:08 | 43.59410 | -70.36676 | 2280 ft | 73 kts | 224° |
| 2026-05-04 21:09 | 43.58963 | -70.37054 | 2324 ft | 78 kts | 225° |
| 2026-05-04 21:09 | 43.58499 | -70.37468 | 2430 ft | 80 kts | 224° |
| 2026-05-04 21:09 | 43.58033 | -70.37850 | 2561 ft | 76 kts | 220° |
| 2026-05-04 21:09 | 43.57560 | -70.38221 | 2534 ft | 86 kts | 221° |
| 2026-05-04 21:10 | 43.57021 | -70.38663 | 2445 ft | 89 kts | 221° |
| 2026-05-04 21:10 | 43.56503 | -70.39103 | 2410 ft | 86 kts | 225° |
| 2026-05-04 21:10 | 43.56003 | -70.39605 | 2369 ft | 89 kts | 227° |
| 2026-05-04 21:10 | 43.55521 | -70.40094 | 2378 ft | 87 kts | 225° |
| 2026-05-04 21:11 | 43.55039 | -70.40564 | 2422 ft | 85 kts | 228° |
| 2026-05-04 21:11 | 43.54591 | -70.41077 | 2468 ft | 82 kts | 234° |
| 2026-05-04 21:11 | 43.54203 | -70.41604 | 2522 ft | 77 kts | 234° |
| 2026-05-04 21:11 | 43.53820 | -70.42103 | 2612 ft | 75 kts | 234° |
| 2026-05-04 21:12 | 43.53250 | -70.42380 | 2448 ft | 102 kts | 197° |
| 2026-05-04 21:12 | 43.52531 | -70.42341 | 2208 ft | 103 kts | 186° |
| 2026-05-04 21:12 | 43.51871 | -70.42273 | 2069 ft | 86 kts | 193° |
| 2026-05-04 21:12 | 43.51313 | -70.42289 | 1984 ft | 76 kts | 202° |
| 2026-05-04 21:13 | 43.50804 | -70.42404 | 1837 ft | 75 kts | 209° |
| 2026-05-04 21:13 | 43.50293 | -70.42552 | 1715 ft | 74 kts | 214° |
| 2026-05-04 21:13 | 43.49860 | -70.42900 | 1524 ft | 70 kts | 228° |
| 2026-05-04 21:13 | 43.49479 | -70.43229 | 1435 ft | 61 kts | 228° |
| 2026-05-04 21:14 | 43.49169 | -70.43548 | 1364 ft | 51 kts | 237° |
| 2026-05-04 21:14 | 43.48915 | -70.43906 | 1283 ft | 52 kts | 240° |
| 2026-05-04 21:14 | 43.48666 | -70.44276 | 1213 ft | 54 kts | 240° |
| 2026-05-04 21:14 | 43.48408 | -70.44691 | 1028 ft | 60 kts | 236° |
| 2026-05-04 21:15 | 43.48103 | -70.45074 | 900 ft | 63 kts | 231° |
| 2026-05-04 21:15 | 43.47801 | -70.45478 | 824 ft | 55 kts | 228° |
| 2026-05-04 21:15 | 43.47530 | -70.45845 | 675 ft | 55 kts | 224° |
| 2026-05-04 21:15 | 43.47262 | -70.46201 | 517 ft | 53 kts | 232° |
| 2026-05-04 21:16 | 43.46976 | -70.46493 | 354 ft | 55 kts | 230° |
| 2026-05-04 21:16 | 43.46702 | -70.46884 | 202 ft | 57 kts | 227° |
| 2026-05-04 21:16 | 43.46447 | -70.47196 | 156 ft | 35 kts | 220° |
| 2026-05-04 21:16 | 43.46254 | -70.47426 | 165 ft | 51 kts | 222° |
| 2026-05-04 21:17 | 43.45954 | -70.47787 | 264 ft | 63 kts | 239° |
| 2026-05-04 21:17 | 43.46094 | -70.48249 | 376 ft | 67 kts | 314° |
| 2026-05-04 21:17 | 43.46215 | -70.48712 | 427 ft | 50 kts | 272° |
| 2026-05-04 21:17 | 43.46004 | -70.49125 | 414 ft | 67 kts | 240° |
| 2026-05-04 21:18 | 43.45913 | -70.49729 | 297 ft | 80 kts | 295° |
| 2026-05-04 21:18 | 43.46073 | -70.50330 | 468 ft | 64 kts | 285° |
| 2026-05-04 21:18 | 43.46018 | -70.50761 | 154 ft | 37 kts | 209° |
| 2026-05-04 21:18 | 43.45933 | -70.50818 | 125 ft | 11 kts | 258° |